Thursday, January 18, 2018, 6:54 PM EST
Back to Local

KTEB, Teterboro Airport

Location: South Hackensack, NJ, United States Lat: 40.867
Local Time: 6:54 PM EST (23:54 GMT) Lon: -74.05
Time Zone: US/Eastern Elev: 9 ft

Show me the last for .
Show Coded

Time T Td Feel RH Dir Speed Gust Alt SLP Vis Weather Sky Remarks
2018-01-18 17:51 30 13 18 48 320° 9 18 29.99 29.99 10 CLR None
2018-01-18 16:51 31 12 17 44 310° 15 26 29.95 29.95 10 CLR None
2018-01-18 15:51 33 12 20 41 320° 10 24 29.94 29.93 10 CLR None
2018-01-18 14:51 32 11 19 40 330° 10 22 29.93 29.93 10 CLR None
2018-01-18 13:51 32 10 19 39 340° 13 22 29.93 29.93 10 CLR None
2018-01-18 12:51 30 9 16 40 310° 13 24 29.96 29.96 10 CLR 6-hr Min Temp (1pm): 17.1°F
6-hr Max Temp (1pm): 30.9°F
2018-01-18 11:51 30 9 16 40 330° 17 26 30.00 29.99 10 CLR None
2018-01-18 10:51 28 8 17 42 310° 15 - 30.05 30.04 10 CLR None
2018-01-18 09:51 25 9 11 49 320° 12 20 30.05 30.05 10 CLR None
2018-01-18 08:51 22 8 6 54 310° 14 22 30.06 30.06 10 CLR None
2018-01-18 07:51 19 8 11 61 Variable 6 - 30.08 30.08 10 CLR None
2018-01-18 06:51 18 9 9 67 230° 7 - 30.09 30.09 10 CLR 24-hr Precip Total (7am): 0.13"
6-hr Min Temp (7am): 16.0°F
6-hr Max Temp (7am): 19.9°F
2018-01-18 05:51 18 9 13 67 Variable 3 - 30.04 30.03 10 CLR None
2018-01-18 04:51 16 8 9 70 280° 5 - 30.05 30.05 10 CLR None
2018-01-18 03:51 17 8 10 67 330° 5 - 30.08 30.07 10 CLR Pressure falling rapidly
2018-01-18 02:51 19 9 3 64 310° 10 21 30.12 30.12 10 CLR None
2018-01-18 01:51 19 9 10 64 300° 7 - 30.14 30.14 10 CLR None
2018-01-18 00:51 20 9 10 61 320° 8 - 30.15 30.15 10 CLR 6-hr Min Temp (1am): 19.9°F
6-hr Max Temp (1am): 26.1°F
2018-01-18 00:18 19 9 9 62 300° 9 - 30.17 - 10 CLR None
2018-01-17 23:51 21 9 11 58 330° 9 - 30.16 30.16 10 OVC028 24-hr Min Temp (12am): 21.0°F
24-hr Max Temp (12am): 36.0°F
2018-01-17 22:51 22 9 10 56 330° 12 - 30.17 30.17 10 OVC025 None
2018-01-17 21:51 22 10 11 59 330° 10 - 30.19 30.19 10 OVC025 None
2018-01-17 20:51 23 12 11 62 330° 13 - 30.18 30.18 10 OVC024 None
2018-01-17 20:35 24 13 8 61 320° 13 24 30.18 - 10 BKN024 None
2018-01-17 19:51 24 14 9 64 320° 15 23 30.19 30.18 10 CLR None

Support USWX by starting your Amazon purchase here.